Decoded Metar for KHXD (HILTON HEAD in SC, USA) (IATA:HXD) | Meteo·Mobile Aviation Weather
aviador You're here:

KHXD Decoded Metar

HILTON HEAD in SC, USA
Report Time2018-08-22 06:35:00
UTC Time2018-08-22 07:00:38
Flight Rules vfr VFR
Wind220° at 07 kt
W.Decomp.*RWY 21: 6.7 kt HW 2.0 kt RCW
W.Rank220° ranks 13
Current wind is above 220° avg. (6.1)
Visibility9999 m
Phenomena:N/A
Clouds:N/A
Expected CloudBase > 800 ft AGL from Temp-Dew spread
CeilingNone
Temp26°C (ISA +11)
Dew Point24°C (89% RH)
QNH1016 hPa
Density Alt1,585 ft
Elevation20 ft
Report Wrong Elevation
Raw Report
METAR KHXD 220635Z AUTO 22007KT 190V250 10SM CLR 26/24 A3001 RMK AO2=

Extra information for KHXD:More info

Metar Taf Metar & Taf Last 4 Metars F.Rules Stats Wind Profile Meteogram Temp Stats Airport Information Weather charts Add Link Nearby VenuesMetar ALERT Operation Metar Decoded Social comments

AIRNAV info for KHXD